Time;durP1;ratioP1;P1;durP2;ratioP2;P2;SDS_P1;SDS_P2;PMS_P1;PMS_P2;Temp;Humidity;BMP_temperature;BMP_pressure;BME280_temperature;BME280_humidity;BME280_pressure;Samples;Min_cycle;Max_cycle;Signal;HPM_P1;HPM_P2
2021/01/02 00:01:04;;;;;;;51.35;25.60;;;;;;;-1.07;86.21;95467.56;5085139;28;20421;-73
2021/01/02 00:03:48;;;;;;;48.15;23.92;;;;;;;-1.02;85.73;95470.50;5083173;28;20048;-74
2021/01/02 00:06:27;;;;;;;32.63;17.63;;;;;;;-0.97;84.20;95458.09;5084173;28;20060;-71
2021/01/02 00:09:08;;;;;;;33.28;16.48;;;;;;;-0.93;83.92;95468.84;5084844;27;20143;-72
2021/01/02 00:12:11;;;;;;;40.92;18.65;;;;;;;-0.87;82.88;95468.25;5083254;28;20489;-72
2021/01/02 00:14:53;;;;;;;25.20;11.68;;;;;;;-0.79;82.42;95470.91;5069804;28;20076;-72
2021/01/02 00:17:47;;;;;;;28.08;13.85;;;;;;;-0.90;81.46;95458.31;5089805;28;20042;-72
2021/01/02 00:20:25;;;;;;;22.60;11.85;;;;;;;-1.61;85.12;95490.41;5090101;28;20113;-72
2021/01/02 00:22:58;;;;;;;22.92;12.98;;;;;;;-1.68;85.42;95489.34;5088752;28;20039;-72
2021/01/02 00:25:30;;;;;;;32.90;15.88;;;;;;;-1.56;85.18;95488.22;5089634;28;20050;-72
2021/01/02 00:28:18;;;;;;;32.05;15.57;;;;;;;-1.45;84.15;95484.69;5089415;28;20123;-72
2021/01/02 00:30:57;;;;;;;27.42;14.82;;;;;;;-1.55;85.30;95492.38;5090734;28;20032;-72
2021/01/02 00:34:16;;;;;;;34.15;17.25;;;;;;;-1.41;85.21;95502.16;5088335;28;20550;-72
2021/01/02 00:37:28;;;;;;;34.78;17.65;;;;;;;-1.33;84.63;95508.31;5090057;28;20094;-72
2021/01/02 00:39:58;;;;;;;42.03;20.98;;;;;;;-1.23;83.58;95509.09;5088828;28;20140;-72
2021/01/02 00:42:25;;;;;;;41.92;18.50;;;;;;;-1.30;82.13;95497.81;5089061;28;20487;-72
2021/01/02 00:44:58;;;;;;;34.80;18.27;;;;;;;-1.24;81.62;95500.63;5090262;28;20054;-72
2021/01/02 00:47:31;;;;;;;38.47;18.73;;;;;;;-1.25;80.96;95510.97;5090045;28;20115;-72
2021/01/02 00:49:59;;;;;;;27.83;13.93;;;;;;;-1.26;81.06;95510.19;5088677;28;20098;-72
2021/01/02 00:52:44;;;;;;;30.52;16.45;;;;;;;-1.26;80.20;95514.47;5088816;28;20036;-72
2021/01/02 00:55:21;;;;;;;37.42;17.98;;;;;;;-1.31;80.08;95506.44;5088841;28;20052;-73
2021/01/02 00:58:05;;;;;;;31.73;13.52;;;;;;;-1.43;80.32;95504.03;5087237;28;20067;-72
2021/01/02 01:00:38;;;;;;;22.05;10.07;;;;;;;-1.45;81.10;95505.13;5088293;28;20086;-72
2021/01/02 01:03:44;;;;;;;23.20;10.35;;;;;;;-1.50;81.51;95497.09;5086942;28;20059;-72
2021/01/02 01:06:12;;;;;;;21.13;11.27;;;;;;;-1.54;81.82;95496.56;5089191;28;20430;-72
2021/01/02 01:08:44;;;;;;;21.02;10.48;;;;;;;-1.50;81.94;95492.78;5088253;28;20044;-72
2021/01/02 01:11:13;;;;;;;22.67;9.70;;;;;;;-1.53;82.47;95495.63;5089627;28;20032;-72
2021/01/02 01:13:40;;;;;;;20.33;10.15;;;;;;;-1.52;83.48;95494.66;5089267;28;20051;-72
2021/01/02 01:16:08;;;;;;;21.63;11.27;;;;;;;-1.56;84.73;95489.03;5088601;28;20124;-72
2021/01/02 01:19:02;;;;;;;20.23;9.80;;;;;;;-1.43;84.78;95488.72;5087027;28;20127;-72
2021/01/02 01:21:34;;;;;;;20.20;10.52;;;;;;;-1.44;84.56;95478.63;5087232;28;20414;-72
2021/01/02 01:24:12;;;;;;;19.10;10.07;;;;;;;-1.15;85.06;95486.19;5088884;28;20429;-72
2021/01/02 01:26:42;;;;;;;17.23;9.98;;;;;;;-0.98;84.45;95498.19;5088709;28;20074;-72
2021/01/02 01:29:36;;;;;;;25.20;11.10;;;;;;;-1.00;84.17;95500.09;5088728;28;20046;-72
2021/01/02 01:32:05;;;;;;;22.27;10.88;;;;;;;-1.19;84.86;95495.06;5081364;28;20430;-72
2021/01/02 01:34:33;;;;;;;20.52;10.23;;;;;;;-1.21;84.77;95491.84;5087093;28;20047;-73
2021/01/02 01:37:04;;;;;;;22.02;12.30;;;;;;;-1.14;84.60;95492.91;5088514;28;20529;-72
2021/01/02 01:39:32;;;;;;;18.02;10.98;;;;;;;-1.12;84.16;95498.66;5088882;28;20527;-73
2021/01/02 01:42:04;;;;;;;21.35;10.50;;;;;;;-1.03;83.82;95500.38;5087292;28;20044;-72
2021/01/02 01:44:43;;;;;;;20.92;9.45;;;;;;;-1.05;82.50;95502.25;5088274;28;20031;-73
2021/01/02 01:47:15;;;;;;;22.48;10.23;;;;;;;-1.10;81.64;95504.44;5086715;28;20433;-72
2021/01/02 01:49:57;;;;;;;20.75;10.35;;;;;;;-1.08;81.51;95502.56;5087901;28;20032;-73
2021/01/02 01:53:04;;;;;;;21.15;11.07;;;;;;;-1.09;80.77;95506.06;5087261;28;20039;-73
2021/01/02 01:55:48;;;;;;;23.15;11.02;;;;;;;-1.23;80.19;95493.75;5087335;28;20418;-72
2021/01/02 01:58:17;;;;;;;21.27;10.50;;;;;;;-1.22;79.98;95503.84;5088202;28;20054;-72
2021/01/02 02:00:45;;;;;;;21.15;10.88;;;;;;;-1.25;79.42;95500.75;5085011;28;20469;-72
2021/01/02 02:03:24;;;;;;;24.25;12.45;;;;;;;-1.31;79.79;95506.44;5087424;28;20115;-72
2021/01/02 02:05:54;;;;;;;26.30;11.93;;;;;;;-1.39;79.63;95502.00;5087849;28;20124;-73
2021/01/02 02:08:39;;;;;;;14.70;8.88;;;;;;;-1.49;79.69;95499.50;5088113;28;20477;-72
2021/01/02 02:11:05;;;;;;;25.25;9.65;;;;;;;-1.44;79.87;95517.78;5087612;28;20084;-72
2021/01/02 02:13:43;;;;;;;30.05;14.25;;;;;;;-1.54;80.69;95517.00;5087393;28;20036;-72
2021/01/02 02:16:12;;;;;;;31.85;14.75;;;;;;;-1.61;81.38;95515.94;5087329;28;20044;-73
2021/01/02 02:18:43;;;;;;;26.08;12.70;;;;;;;-1.69;81.73;95500.47;5086432;28;20565;-72
2021/01/02 02:21:12;;;;;;;26.02;12.05;;;;;;;-1.61;81.27;95510.81;5086658;28;20047;-72
2021/01/02 02:23:57;;;;;;;24.73;13.02;;;;;;;-1.73;82.24;95502.50;5086555;28;20051;-72
2021/01/02 02:26:34;;;;;;;24.40;10.40;;;;;;;-1.64;82.00;95518.75;5087968;28;20145;-72
2021/01/02 02:29:13;;;;;;;28.27;10.68;;;;;;;-1.69;81.22;95513.25;5086682;28;20546;-73
2021/01/02 02:31:46;;;;;;;20.55;11.32;;;;;;;-1.92;82.81;95503.38;5087702;28;20032;-72
2021/01/02 02:34:13;;;;;;;21.08;10.73;;;;;;;-1.80;82.87;95517.59;5084688;28;20040;-72
2021/01/02 02:36:40;;;;;;;19.25;7.90;;;;;;;-1.79;82.68;95516.63;5086633;28;20131;-73
2021/01/02 02:39:10;;;;;;;15.63;8.60;;;;;;;-1.83;82.19;95515.31;5086346;28;20047;-72
2021/01/02 02:41:47;;;;;;;16.38;8.68;;;;;;;-1.84;81.48;95511.13;5087365;28;20032;-72
2021/01/02 02:44:17;;;;;;;16.10;7.40;;;;;;;-1.83;81.01;95512.75;5086720;28;20044;-72
2021/01/02 02:46:45;;;;;;;12.93;6.57;;;;;;;-1.82;80.88;95509.28;5087527;28;20108;-73
2021/01/02 02:49:17;;;;;;;12.65;6.32;;;;;;;-1.84;80.25;95516.25;5086331;28;20115;-72
2021/01/02 02:51:49;;;;;;;15.43;7.60;;;;;;;-1.88;80.04;95514.91;5087212;28;20040;-73
2021/01/02 02:54:16;;;;;;;13.30;7.25;;;;;;;-1.93;79.97;95511.97;5087468;28;20039;-73
2021/01/02 02:56:42;;;;;;;14.23;7.13;;;;;;;-1.96;80.15;95515.59;5087352;28;20047;-73
2021/01/02 02:59:11;;;;;;;14.63;7.93;;;;;;;-1.98;79.98;95507.28;5087146;28;20067;-73
2021/01/02 03:01:37;;;;;;;16.55;9.05;;;;;;;-1.99;80.30;95515.06;5087049;28;20032;-73
2021/01/02 03:04:03;;;;;;;21.15;12.02;;;;;;;-2.05;80.64;95510.50;5085280;28;20433;-73
2021/01/02 03:06:31;;;;;;;20.75;11.02;;;;;;;-1.99;80.84;95512.53;5087144;28;20044;-72
2021/01/02 03:08:58;;;;;;;14.32;7.07;;;;;;;-2.07;81.08;95491.97;5086186;28;20044;-73
2021/01/02 03:11:25;;;;;;;14.07;6.13;;;;;;;-2.00;80.88;95503.22;5086403;28;20485;-72
2021/01/02 03:13:53;;;;;;;11.88;6.15;;;;;;;-2.02;80.58;95507.69;5085319;28;20032;-72
2021/01/02 03:16:23;;;;;;;10.60;5.70;;;;;;;-2.08;80.46;95496.25;5087022;28;20050;-73
2021/01/02 03:18:49;;;;;;;11.27;5.82;;;;;;;-1.98;79.98;95509.00;5086155;28;20042;-73
2021/01/02 03:21:16;;;;;;;12.43;7.97;;;;;;;-2.05;79.62;95502.84;5085730;28;20040;-73
2021/01/02 03:23:45;;;;;;;17.98;9.43;;;;;;;-2.05;79.81;95502.84;5085961;28;20054;-73
2021/01/02 03:26:12;;;;;;;20.75;11.32;;;;;;;-2.21;79.77;95488.91;5085763;28;20035;-72
2021/01/02 03:28:38;;;;;;;14.27;7.53;;;;;;;-2.17;79.68;95502.97;5086768;28;20425;-73
2021/01/02 03:31:04;;;;;;;34.95;16.52;;;;;;;-2.16;81.22;95496.94;5085592;28;20046;-73
2021/01/02 03:33:31;;;;;;;25.35;12.45;;;;;;;-2.03;81.91;95506.09;5085280;28;20047;-73
2021/01/02 03:35:59;;;;;;;22.30;9.95;;;;;;;-2.00;82.53;95521.09;5085552;28;20036;-73
2021/01/02 03:38:29;;;;;;;17.60;8.50;;;;;;;-2.01;83.40;95524.63;5085501;28;20075;-73
2021/01/02 03:40:56;;;;;;;25.80;9.07;;;;;;;-1.95;84.04;95524.06;5085874;28;20052;-72
2021/01/02 03:43:24;;;;;;;28.63;12.32;;;;;;;-1.90;83.87;95527.00;5085922;28;20085;-73
2021/01/02 03:45:51;;;;;;;62.75;23.73;;;;;;;-2.41;85.14;95515.34;5086249;28;20109;-72
2021/01/02 03:48:18;;;;;;;56.15;21.60;;;;;;;-2.41;85.03;95523.00;5086519;28;20047;-72
2021/01/02 03:50:44;;;;;;;51.88;19.63;;;;;;;-2.34;84.41;95524.06;5086962;28;20036;-72
2021/01/02 03:53:11;;;;;;;49.63;19.15;;;;;;;-2.20;84.10;95538.19;5085775;28;20040;-73
2021/01/02 03:55:37;;;;;;;48.42;19.75;;;;;;;-2.24;82.89;95535.09;5085560;28;20031;-72
2021/01/02 03:58:03;;;;;;;33.97;12.68;;;;;;;-2.18;82.24;95547.34;5068816;28;20048;-73
2021/01/02 04:00:30;;;;;;;42.25;13.95;;;;;;;-2.24;81.56;95534.28;5085374;28;20051;-73
2021/01/02 04:02:56;;;;;;;27.60;12.25;;;;;;;-2.18;81.27;95549.88;5085940;28;20118;-72
2021/01/02 04:05:22;;;;;;;26.60;12.35;;;;;;;-2.18;81.31;95544.78;5085850;28;20048;-72
2021/01/02 04:07:49;;;;;;;28.10;11.18;;;;;;;-2.17;81.60;95541.28;5084750;28;20047;-72
2021/01/02 04:10:15;;;;;;;28.83;12.32;;;;;;;-2.21;80.48;95539.94;5086549;28;20036;-72
2021/01/02 04:12:41;;;;;;;20.95;10.95;;;;;;;-2.28;81.10;95533.75;5087012;28;20032;-73
2021/01/02 04:15:08;;;;;;;27.30;12.48;;;;;;;-2.26;81.63;95547.19;5086708;28;20044;-73
2021/01/02 04:17:34;;;;;;;25.27;11.63;;;;;;;-2.27;81.32;95545.56;5086750;28;20421;-73
2021/01/02 04:20:04;;;;;;;28.55;11.68;;;;;;;-2.38;81.55;95528.63;5085291;28;20445;-73
2021/01/02 04:22:32;;;;;;;24.70;11.57;;;;;;;-2.73;85.13;95552.09;5086468;28;20496;-73
2021/01/02 04:25:00;;;;;;;22.83;11.15;;;;;;;-2.72;84.32;95540.94;5086167;28;20449;-73
2021/01/02 04:27:27;;;;;;;24.23;11.90;;;;;;;-2.58;84.36;95558.41;5086268;28;20478;-73
2021/01/02 04:29:53;;;;;;;21.67;11.52;;;;;;;-2.62;84.47;95541.78;5086349;28;20509;-73
2021/01/02 04:32:19;;;;;;;27.30;12.65;;;;;;;-2.60;83.85;95544.19;5085697;28;20040;-72
2021/01/02 04:34:46;;;;;;;26.92;11.38;;;;;;;-2.54;83.72;95554.69;5082095;28;20136;-72
2021/01/02 04:37:14;;;;;;;21.33;11.80;;;;;;;-2.47;83.39;95559.25;5084532;28;20040;-72
2021/01/02 04:39:40;;;;;;;29.20;13.13;;;;;;;-2.43;83.12;95550.38;5084654;28;20059;-73
2021/01/02 04:42:07;;;;;;;29.17;13.82;;;;;;;-2.30;82.10;95558.59;5084432;28;20050;-73
2021/01/02 04:44:35;;;;;;;32.00;12.70;;;;;;;-2.36;81.96;95556.56;5085874;28;20044;-73
2021/01/02 04:47:03;;;;;;;27.75;12.38;;;;;;;-2.31;82.11;95562.88;5085863;28;20036;-73
2021/01/02 04:49:29;;;;;;;25.73;11.68;;;;;;;-2.25;81.44;95564.13;5085558;28;20050;-73
2021/01/02 04:52:02;;;;;;;26.33;11.98;;;;;;;-2.25;81.58;95569.22;5086197;28;20028;-73
2021/01/02 04:54:28;;;;;;;24.63;10.73;;;;;;;-2.33;80.94;95561.41;5084644;28;20040;-73
2021/01/02 04:56:55;;;;;;;26.75;14.15;;;;;;;-2.32;80.34;95565.59;5087911;28;20036;-73
2021/01/02 04:59:26;;;;;;;22.83;11.43;;;;;;;-2.35;80.11;95573.50;5089678;28;20067;-73
2021/01/02 05:01:54;;;;;;;22.00;11.75;;;;;;;-2.46;80.22;95584.63;5087181;28;20040;-73
2021/01/02 05:04:21;;;;;;;29.77;13.60;;;;;;;-2.45;80.52;95582.88;5089252;28;20549;-72
2021/01/02 05:06:48;;;;;;;26.10;13.10;;;;;;;-2.48;80.65;95588.22;5089065;28;20036;-73
2021/01/02 05:09:14;;;;;;;23.98;11.90;;;;;;;-2.63;80.93;95575.88;5089396;28;20051;-73
2021/01/02 05:11:41;;;;;;;27.30;13.30;;;;;;;-2.60;81.02;95585.81;5089368;28;20039;-73
2021/01/02 05:14:08;;;;;;;24.10;11.68;;;;;;;-2.59;80.44;95597.63;5088526;28;20075;-71
2021/01/02 05:19:10;;;;;;;20.50;11.10;;;;;;;-2.65;80.11;95600.69;5088430;28;20040;-71
2021/01/02 05:21:46;;;;;;;22.90;12.25;;;;;;;-2.56;79.74;95610.09;5087843;28;20040;-71
2021/01/02 05:24:17;;;;;;;25.17;11.15;;;;;;;-2.59;79.53;95605.28;5089267;28;20071;-71
2021/01/02 05:27:04;;;;;;;26.58;13.05;;;;;;;-2.59;79.40;95602.72;5088341;28;20451;-72
2021/01/02 05:29:31;;;;;;;20.75;11.57;;;;;;;-2.60;79.41;95607.97;5088993;28;20109;-71
2021/01/02 05:32:03;;;;;;;22.10;11.93;;;;;;;-2.61;79.46;95619.09;5089083;28;20068;-72
2021/01/02 05:34:31;;;;;;;27.02;12.52;;;;;;;-2.65;79.34;95603.22;5086491;28;20499;-72
2021/01/02 05:37:01;;;;;;;21.48;11.27;;;;;;;-2.64;79.42;95604.84;5089079;28;20040;-72
2021/01/02 05:39:52;;;;;;;26.95;11.90;;;;;;;-2.59;79.19;95617.22;5087637;28;20040;-72
2021/01/02 05:42:20;;;;;;;29.20;14.23;;;;;;;-2.71;79.21;95611.41;5089096;28;20481;-72
2021/01/02 05:44:47;;;;;;;18.42;11.45;;;;;;;-2.68;78.94;95621.38;5089221;28;20047;-72
2021/01/02 05:47:20;;;;;;;17.58;8.65;;;;;;;-2.71;78.56;95624.16;5089002;28;20505;-72
2021/01/02 05:49:49;;;;;;;14.07;8.27;;;;;;;-2.75;78.72;95623.63;5087378;28;20043;-72
2021/01/02 05:52:17;;;;;;;22.85;12.13;;;;;;;-2.77;79.30;95625.50;5088691;28;20034;-72
2021/01/02 05:54:46;;;;;;;27.25;11.02;;;;;;;-2.80;79.56;95630.03;5087644;28;20044;-72
2021/01/02 05:57:13;;;;;;;18.50;9.00;;;;;;;-2.81;79.85;95625.88;5088625;28;20466;-72
2021/01/02 05:59:42;;;;;;;15.77;9.68;;;;;;;-2.88;80.30;95621.28;5088622;28;20028;-71
2021/01/02 06:02:31;;;;;;;18.38;8.68;;;;;;;-2.85;80.31;95634.72;5087764;28;20032;-72
2021/01/02 06:05:03;;;;;;;19.80;9.82;;;;;;;-2.90;79.94;95635.91;5087881;28;20032;-71
2021/01/02 06:07:33;;;;;;;17.27;9.05;;;;;;;-2.89;80.32;95642.59;5088165;28;20036;-72
2021/01/02 06:10:03;;;;;;;23.45;9.88;;;;;;;-2.99;80.23;95631.59;5069887;28;20052;-71
2021/01/02 06:12:32;;;;;;;31.05;11.27;;;;;;;-3.01;80.12;95643.63;5086395;28;20040;-72
2021/01/02 06:15:19;;;;;;;21.92;12.27;;;;;;;-2.94;81.06;95649.81;5088719;28;20040;-72
2021/01/02 06:17:46;;;;;;;27.02;12.73;;;;;;;-2.97;81.78;95647.56;5088565;28;20097;-72
2021/01/02 06:20:15;;;;;;;34.13;15.40;;;;;;;-2.96;82.23;95649.16;5087409;28;20157;-71
2021/01/02 06:22:42;;;;;;;37.13;17.00;;;;;;;-2.98;82.00;95652.78;5088084;28;20124;-71
2021/01/02 06:25:11;;;;;;;29.35;15.27;;;;;;;-2.92;81.36;95655.63;5086810;28;20054;-71
2021/01/02 06:27:42;;;;;;;44.65;21.85;;;;;;;-2.95;81.66;95666.06;5088230;28;20043;-72
2021/01/02 06:30:14;;;;;;;39.92;17.98;;;;;;;-2.96;83.22;95661.91;5087403;28;20481;-72
2021/01/02 06:32:44;;;;;;;50.67;19.20;;;;;;;-2.90;83.37;95666.50;5087933;28;20056;-72
2021/01/02 06:35:10;;;;;;;184.70;70.30;;;;;;;-2.89;83.13;95665.56;5084690;28;20119;-72
2021/01/02 06:37:49;;;;;;;80.43;35.10;;;;;;;-2.88;82.93;95664.63;5086520;28;20040;-72
2021/01/02 06:40:19;;;;;;;263.48;113.10;;;;;;;-2.85;83.04;95662.75;5085537;28;20037;-71
2021/01/02 06:42:52;;;;;;;229.40;106.75;;;;;;;-2.88;83.92;95662.09;5086755;28;20391;-72
2021/01/02 06:45:37;;;;;;;126.97;58.72;;;;;;;-2.79;84.21;95664.78;5087922;28;20036;-71
2021/01/02 06:48:24;;;;;;;95.97;42.92;;;;;;;-2.74;84.83;95658.41;5086100;28;20117;-71
2021/01/02 06:50:53;;;;;;;38.40;19.63;;;;;;;-2.64;85.00;95655.88;5087550;28;20040;-71
2021/01/02 06:53:19;;;;;;;32.60;16.00;;;;;;;-2.54;85.18;95666.91;5086659;28;20510;-71
2021/01/02 06:55:55;;;;;;;68.50;34.10;;;;;;;-2.43;85.91;95663.47;5087749;28;20118;-72
2021/01/02 06:58:22;;;;;;;56.33;32.33;;;;;;;-2.34;86.33;95664.41;5087501;28;20048;-72
2021/01/02 07:00:48;;;;;;;98.07;40.70;;;;;;;-2.24;86.70;95662.69;5086916;28;20043;-72
2021/01/02 07:03:39;;;;;;;65.60;30.17;;;;;;;-2.07;86.82;95662.97;5085983;28;20130;-72
2021/01/02 07:06:23;;;;;;;45.03;25.02;;;;;;;-1.99;87.47;95668.25;5085902;28;20059;-72
2021/01/02 07:08:56;;;;;;;36.67;18.75;;;;;;;-1.84;87.59;95664.34;5085849;28;20135;-72
2021/01/02 07:11:43;;;;;;;31.33;16.63;;;;;;;-1.79;87.73;95674.19;5084525;28;20120;-72
2021/01/02 07:14:09;;;;;;;36.83;17.98;;;;;;;-1.75;88.22;95678.06;5085518;28;20740;-71
2021/01/02 07:16:36;;;;;;;39.35;20.55;;;;;;;-1.62;89.20;95677.81;5084267;28;20044;-73
2021/01/02 07:19:06;;;;;;;34.22;18.77;;;;;;;-1.49;88.76;95673.25;5084555;28;20054;-74
2021/01/02 07:21:39;;;;;;;32.90;17.20;;;;;;;-1.51;87.78;95667.47;5082440;28;20039;-73
2021/01/02 07:24:24;;;;;;;46.63;24.00;;;;;;;-1.35;87.83;95680.50;5084286;28;20047;-73
2021/01/02 07:27:05;;;;;;;60.10;33.63;;;;;;;-1.29;88.03;95678.34;5086173;28;20032;-73
2021/01/02 07:29:42;;;;;;;43.05;22.30;;;;;;;-1.36;89.74;95658.44;5086763;28;20553;-73
2021/01/02 07:32:08;;;;;;;44.97;23.83;;;;;;;-1.02;90.40;95680.97;5085678;28;20044;-73
2021/01/02 07:34:35;;;;;;;44.67;25.35;;;;;;;-0.94;90.64;95667.50;5083585;28;20410;-73
2021/01/02 07:37:10;;;;;;;40.63;24.02;;;;;;;-0.75;90.83;95681.19;5085278;28;20417;-73
2021/01/02 07:39:36;;;;;;;;;;;;;;;-0.55;90.97;95676.81;5086217;28;20047;-73
2021/01/02 07:42:12;;;;;;;42.83;22.10;;;;;;;-0.46;89.91;95676.75;5086588;28;20373;-73
2021/01/02 07:44:40;;;;;;;44.33;20.50;;;;;;;-0.27;89.25;95687.84;5084014;28;20044;-73
2021/01/02 07:47:07;;;;;;;38.28;20.90;;;;;;;-0.13;88.76;95666.88;5085020;28;20067;-73
2021/01/02 07:49:33;;;;;;;37.25;20.05;;;;;;;-0.03;87.95;95671.97;5086271;28;20051;-73
2021/01/02 07:52:02;;;;;;;31.42;17.60;;;;;;;0.15;88.36;95674.53;5086303;28;20039;-73
2021/01/02 07:54:33;;;;;;;37.63;18.13;;;;;;;0.23;88.10;95671.25;5085054;28;20048;-73
2021/01/02 07:57:01;;;;;;;41.35;21.90;;;;;;;0.36;88.00;95676.78;5085630;28;20042;-73
2021/01/02 07:59:29;;;;;;;47.20;23.30;;;;;;;0.40;86.74;95673.00;5086285;28;20420;-73
2021/01/02 08:01:58;;;;;;;41.60;24.20;;;;;;;0.57;85.97;95663.69;5085761;28;20050;-73
2021/01/02 08:04:26;;;;;;;44.92;25.17;;;;;;;0.73;84.65;95673.28;5085161;28;20046;-73
2021/01/02 08:07:00;;;;;;;39.22;18.77;;;;;;;0.82;83.04;95679.28;5086217;28;20060;-73
2021/01/02 08:09:27;;;;;;;;;;;;;;;0.94;82.58;95676.31;5085814;28;20098;-73
2021/01/02 08:12:04;;;;;;;40.42;19.17;;;;;;;1.02;82.11;95661.94;5086218;28;20019;-72
2021/01/02 08:14:34;;;;;;;47.67;21.48;;;;;;;1.20;80.96;95670.38;5085673;28;20121;-73
2021/01/02 08:17:07;;;;;;;38.00;19.92;;;;;;;1.34;80.30;95662.09;5086191;28;20048;-73
2021/01/02 08:19:40;;;;;;;44.60;19.35;;;;;;;1.46;80.24;95669.53;5085623;28;20533;-73
2021/01/02 08:22:08;;;;;;;41.40;18.67;;;;;;;1.44;79.52;95671.44;5085213;28;20044;-73
2021/01/02 08:24:36;;;;;;;48.55;20.15;;;;;;;1.63;79.22;95666.09;5083908;28;20038;-73
2021/01/02 08:27:04;;;;;;;27.27;11.38;;;;;;;1.74;78.14;95671.91;5085826;28;20036;-73
2021/01/02 08:29:34;;;;;;;20.17;7.28;;;;;;;1.68;77.79;95674.13;5085982;28;20032;-72
2021/01/02 08:32:10;;;;;;;15.23;7.40;;;;;;;1.82;79.05;95677.06;5087083;28;20052;-73
2021/01/02 08:34:37;;;;;;;21.90;10.82;;;;;;;1.98;79.86;95679.72;5086719;28;20036;-72
2021/01/02 08:37:06;;;;;;;23.08;13.45;;;;;;;2.08;79.51;95675.22;5089400;28;20143;-72
2021/01/02 08:39:34;;;;;;;20.75;9.68;;;;;;;2.22;77.69;95670.44;5086945;28;20032;-72
2021/01/02 08:42:01;;;;;;;21.10;9.95;;;;;;;2.34;76.43;95663.22;5088334;28;20044;-73
2021/01/02 08:44:30;;;;;;;22.25;9.85;;;;;;;2.53;75.66;95656.97;5089359;28;20050;-73
2021/01/02 08:46:57;;;;;;;18.02;9.63;;;;;;;2.65;74.56;95665.97;5088553;28;20042;-72
2021/01/02 08:49:35;;;;;;;19.83;11.85;;;;;;;2.81;75.05;95665.97;5089250;28;20448;-72
2021/01/02 08:52:19;;;;;;;17.98;8.63;;;;;;;2.93;74.15;95652.78;5089396;28;20051;-73
2021/01/02 08:54:46;;;;;;;19.90;9.30;;;;;;;2.99;73.80;95652.09;5089336;28;20036;-73
2021/01/02 08:57:29;;;;;;;25.23;13.40;;;;;;;3.11;74.43;95643.09;5089889;28;20036;-72
2021/01/02 09:00:16;;;;;;;21.55;11.60;;;;;;;3.38;74.92;95648.81;5090243;28;20138;-72
2021/01/02 09:03:00;;;;;;;12.73;7.85;;;;;;;3.36;74.88;95637.88;5088917;28;20032;-71
2021/01/02 09:05:29;;;;;;;15.80;9.48;;;;;;;3.70;75.19;95644.53;5089517;28;20032;-70
2021/01/02 09:08:03;;;;;;;10.15;6.45;;;;;;;3.82;74.54;95643.19;5088388;28;20046;-71
2021/01/02 09:10:42;;;;;;;18.00;8.02;;;;;;;3.95;74.49;95612.50;5089427;28;20086;-71
2021/01/02 09:13:23;;;;;;;11.10;7.05;;;;;;;4.09;72.73;95617.88;5088484;28;20047;-71
2021/01/02 09:16:01;;;;;;;15.75;8.25;;;;;;;4.48;72.55;95622.13;5088718;28;20063;-71
2021/01/02 09:18:27;;;;;;;18.23;8.98;;;;;;;4.87;72.40;95626.34;5087937;28;20051;-70
2021/01/02 09:21:06;;;;;;;19.25;11.73;;;;;;;4.95;70.46;95628.81;5086922;28;20123;-71
2021/01/02 09:23:37;;;;;;;26.17;12.90;;;;;;;5.28;69.90;95623.34;5087977;28;20044;-71
2021/01/02 09:26:28;;;;;;;17.95;10.05;;;;;;;5.71;68.46;95623.50;5088152;28;20421;-72
2021/01/02 09:29:17;;;;;;;23.15;11.48;;;;;;;6.06;67.78;95616.75;5086572;28;20105;-69
2021/01/02 09:31:48;;;;;;;23.00;11.20;;;;;;;6.42;63.96;95620.28;5087281;28;20109;-71
2021/01/02 09:34:16;;;;;;;24.08;12.25;;;;;;;6.61;64.28;95624.84;5088027;28;20046;-70
2021/01/02 09:36:43;;;;;;;14.82;8.93;;;;;;;6.89;62.98;95627.44;5069318;28;20052;-71
2021/01/02 09:39:10;;;;;;;17.35;9.50;;;;;;;6.91;63.02;95629.84;5088548;28;20060;-72
2021/01/02 09:41:37;;;;;;;12.88;8.40;;;;;;;6.89;62.85;95608.53;5070309;28;20500;-72
2021/01/02 09:44:03;;;;;;;16.60;7.38;;;;;;;7.00;62.36;95618.34;5087173;28;20040;-71
2021/01/02 09:46:49;;;;;;;18.23;10.27;;;;;;;7.15;62.47;95615.69;5087353;28;20068;-70
2021/01/02 09:49:16;;;;;;;16.25;8.88;;;;;;;7.43;61.19;95607.06;5087895;28;20040;-70
2021/01/02 09:51:42;;;;;;;16.20;8.98;;;;;;;7.73;60.01;95596.44;5087185;28;20065;-70
2021/01/02 09:54:09;;;;;;;17.73;10.07;;;;;;;8.07;59.83;95598.13;5085303;28;20040;-69
2021/01/02 09:56:43;;;;;;;25.48;11.98;;;;;;;8.42;59.07;95592.81;5086852;28;20111;-69
2021/01/02 09:59:13;;;;;;;16.73;10.52;;;;;;;8.46;58.01;95585.44;5081302;28;20049;-70
2021/01/02 10:01:39;;;;;;;15.60;8.55;;;;;;;8.96;57.29;95597.00;5086848;28;20044;-71
2021/01/02 10:04:05;;;;;;;22.92;12.30;;;;;;;8.92;56.02;95569.84;5085171;28;20066;-71
2021/01/02 10:06:31;;;;;;;23.23;13.20;;;;;;;9.51;55.08;95593.31;5087102;28;20048;-69
2021/01/02 10:08:58;;;;;;;19.75;11.40;;;;;;;9.95;52.60;95584.72;5084882;28;20048;-69
2021/01/02 10:11:24;;;;;;;16.27;9.18;;;;;;;10.24;51.27;95576.56;5086188;28;20037;-69
2021/01/02 10:13:51;;;;;;;17.85;9.43;;;;;;;10.68;50.22;95577.50;5086354;28;20040;-71
2021/01/02 10:16:17;;;;;;;21.05;12.32;;;;;;;10.67;52.71;95570.69;5086704;28;20057;-71
2021/01/02 10:18:44;;;;;;;28.20;13.43;;;;;;;11.18;49.92;95561.81;5085464;28;20047;-70
2021/01/02 10:21:13;;;;;;;28.65;16.58;;;;;;;11.49;49.02;95562.69;5087266;28;20073;-69
2021/01/02 10:23:39;;;;;;;24.55;13.32;;;;;;;11.80;47.38;95564.28;5087292;28;20036;-69
2021/01/02 10:26:06;;;;;;;27.88;13.52;;;;;;;11.81;48.01;95559.88;5087281;28;20046;-70
2021/01/02 10:28:32;;;;;;;10.52;6.85;;;;;;;11.44;49.19;95554.69;5087808;28;20040;-70
2021/01/02 10:30:58;;;;;;;10.45;6.38;;;;;;;11.59;47.72;95552.50;5086542;28;20055;-70
2021/01/02 10:33:24;;;;;;;10.57;6.63;;;;;;;11.26;48.38;95538.03;5085446;28;20518;-70
2021/01/02 10:35:51;;;;;;;8.30;5.75;;;;;;;11.57;48.64;95549.31;5086215;28;20056;-70
2021/01/02 10:38:18;;;;;;;13.57;7.35;;;;;;;11.87;48.04;95527.69;5087322;28;20031;-70
2021/01/02 10:40:44;;;;;;;9.05;5.32;;;;;;;12.39;47.11;95533.19;5087246;28;20050;-69
2021/01/02 10:43:10;;;;;;;6.82;4.47;;;;;;;12.68;44.39;95522.09;5087244;28;20512;-71
2021/01/02 10:45:36;;;;;;;5.70;3.88;;;;;;;13.08;43.74;95537.09;5085668;28;20131;-70
2021/01/02 10:48:03;;;;;;;7.63;3.75;;;;;;;12.34;44.52;95525.22;5086802;28;20039;-70
2021/01/02 10:50:29;;;;;;;6.18;4.07;;;;;;;12.37;44.64;95527.41;5085622;28;20050;-69
2021/01/02 10:52:56;;;;;;;8.35;4.25;;;;;;;13.16;43.68;95519.22;5083449;28;20502;-69
2021/01/02 10:55:22;;;;;;;10.57;5.85;;;;;;;13.43;42.66;95518.72;5085259;28;20048;-69
2021/01/02 10:57:48;;;;;;;14.68;7.93;;;;;;;14.33;40.95;95511.97;5086031;28;20105;-69
2021/01/02 11:00:15;;;;;;;8.27;5.55;;;;;;;13.92;40.76;95500.03;5087505;28;20076;-70
2021/01/02 11:02:42;;;;;;;7.95;4.07;;;;;;;14.12;39.58;95504.81;5086483;28;20043;-69
2021/01/02 11:05:09;;;;;;;6.50;4.32;;;;;;;13.61;41.24;95509.13;5086767;28;20035;-70
2021/01/02 11:07:36;;;;;;;5.90;3.42;;;;;;;13.64;40.47;95490.34;5086639;28;20115;-70
2021/01/02 11:10:04;;;;;;;4.75;3.17;;;;;;;13.03;41.67;95498.53;5087011;28;20035;-70
2021/01/02 11:12:30;;;;;;;3.22;2.65;;;;;;;13.19;42.73;95497.81;5086785;28;20032;-69
2021/01/02 11:14:58;;;;;;;5.75;3.65;;;;;;;12.40;42.30;95503.41;5086612;28;20161;-68
2021/01/02 11:17:24;;;;;;;6.13;3.20;;;;;;;12.63;42.88;95478.34;5085115;28;20044;-68
2021/01/02 11:19:51;;;;;;;7.22;3.58;;;;;;;12.85;41.62;95469.91;5085107;28;20131;-68
2021/01/02 11:22:17;;;;;;;7.35;4.78;;;;;;;13.08;41.15;95477.72;5086850;28;20040;-70
2021/01/02 11:24:45;;;;;;;10.93;7.53;;;;;;;13.34;42.52;95478.25;5086736;28;20040;-69
2021/01/02 11:27:13;;;;;;;5.43;3.10;;;;;;;13.89;41.15;95471.69;5086576;28;20036;-69
2021/01/02 11:29:41;;;;;;;9.02;3.58;;;;;;;13.61;40.51;95467.25;5085714;28;20067;-70
2021/01/02 11:32:10;;;;;;;6.22;4.15;;;;;;;14.05;38.98;95472.75;5085749;28;20042;-70
2021/01/02 11:34:37;;;;;;;10.98;7.65;;;;;;;14.14;40.34;95471.31;5085926;28;20051;-72
2021/01/02 11:37:07;;;;;;;11.27;5.75;;;;;;;13.54;39.50;95478.66;5084918;28;20498;-70
2021/01/02 11:39:33;;;;;;;5.00;3.53;;;;;;;13.81;38.25;95478.09;5086499;28;20036;-70
2021/01/02 11:42:01;;;;;;;9.23;6.05;;;;;;;12.71;40.73;95470.16;5084740;28;20105;-70
2021/01/02 11:44:27;;;;;;;8.85;5.38;;;;;;;13.43;40.75;95482.09;5086390;28;22756;-70